createdAt,value
2023-09-04T00:02:01.377Z,16.29
2023-09-04T00:04:29.588Z,16.30
2023-09-04T00:06:57.730Z,16.31
2023-09-04T00:09:25.640Z,16.31
2023-09-04T00:11:53.587Z,16.31
2023-09-04T00:14:21.591Z,16.30
2023-09-04T00:16:49.508Z,16.29
2023-09-04T00:19:18.675Z,16.28
2023-09-04T00:21:46.779Z,16.26
2023-09-04T00:24:14.851Z,16.23
2023-09-04T00:26:42.792Z,16.22
2023-09-04T00:29:10.949Z,16.19
2023-09-04T00:31:38.926Z,16.16
2023-09-04T00:34:07.093Z,16.12
2023-09-04T00:36:35.068Z,16.10
2023-09-04T00:39:03.796Z,16.07
2023-09-04T00:41:31.773Z,16.06
2023-09-04T00:43:59.768Z,16.04
2023-09-04T00:46:28.048Z,16.03
2023-09-04T00:48:56.243Z,16.02
2023-09-04T00:51:24.596Z,16.02
2023-09-04T00:53:52.826Z,16.01
2023-09-04T00:56:21.432Z,16.00
2023-09-04T00:58:50.072Z,16.00
2023-09-04T01:01:19.842Z,15.99
2023-09-04T01:03:48.031Z,15.98
2023-09-04T01:06:16.637Z,15.96
2023-09-04T01:08:44.758Z,15.94
2023-09-04T01:11:20.499Z,15.93
2023-09-04T01:13:52.101Z,15.91
2023-09-04T01:16:21.027Z,15.90
2023-09-04T01:18:49.926Z,15.87
2023-09-04T01:21:18.185Z,15.85
2023-09-04T01:23:46.194Z,15.82
2023-09-04T01:26:28.170Z,15.79
2023-09-04T01:29:14.838Z,15.74
2023-09-04T01:31:52.135Z,15.69
2023-09-04T01:34:33.862Z,15.65
2023-09-04T01:37:02.447Z,15.61
2023-09-04T01:39:31.355Z,15.56
2023-09-04T01:41:59.291Z,15.51
2023-09-04T01:44:27.277Z,15.47
2023-09-04T01:46:55.396Z,15.44
2023-09-04T01:49:23.352Z,15.40
2023-09-04T01:51:52.984Z,15.37
2023-09-04T01:54:20.944Z,15.35
2023-09-04T01:56:49.919Z,15.33
2023-09-04T01:59:18.250Z,15.32
2023-09-04T02:01:46.200Z,15.30
2023-09-04T02:04:14.192Z,15.27
2023-09-04T02:06:42.701Z,15.25
2023-09-04T02:09:10.696Z,15.22
2023-09-04T02:11:38.616Z,15.19
2023-09-04T02:14:06.862Z,15.17
2023-09-04T02:16:34.902Z,15.15
2023-09-04T02:19:02.844Z,15.13
2023-09-04T02:21:30.836Z,15.10
2023-09-04T02:23:58.758Z,15.09
2023-09-04T02:26:26.718Z,15.06
2023-09-04T02:28:54.869Z,15.04
2023-09-04T02:31:22.964Z,15.02
2023-09-04T02:33:53.336Z,15.00
2023-09-04T02:36:24.283Z,14.98
2023-09-04T02:38:52.249Z,14.97
2023-09-04T02:41:20.188Z,14.96
2023-09-04T02:43:48.152Z,14.95
2023-09-04T02:46:16.110Z,14.96
2023-09-04T02:48:44.040Z,14.97
2023-09-04T02:51:11.938Z,14.98
2023-09-04T02:53:40.013Z,15.00
2023-09-04T02:56:08.073Z,15.02
2023-09-04T02:58:36.037Z,15.05
2023-09-04T03:01:04.015Z,15.08
2023-09-04T03:03:32.953Z,15.10
2023-09-04T03:06:11.120Z,15.12
2023-09-04T03:08:40.316Z,15.13
2023-09-04T03:11:10.878Z,15.15
2023-09-04T03:13:39.171Z,15.14
2023-09-04T03:16:08.021Z,15.15
2023-09-04T03:18:36.329Z,15.16
2023-09-04T03:21:05.609Z,15.17
2023-09-04T03:23:33.996Z,15.18
2023-09-04T03:26:03.559Z,15.18
2023-09-04T03:28:31.689Z,15.19
2023-09-04T03:30:59.887Z,15.21
2023-09-04T03:33:28.150Z,15.23
2023-09-04T03:35:58.869Z,15.26
2023-09-04T03:38:27.087Z,15.27
2023-09-04T03:40:55.006Z,15.28
2023-09-04T03:43:23.054Z,15.30
2023-09-04T03:45:53.367Z,15.31
2023-09-04T03:48:21.348Z,15.33
2023-09-04T03:50:49.394Z,15.35
2023-09-04T03:53:17.342Z,15.35
2023-09-04T03:55:45.356Z,15.35
2023-09-04T03:58:13.638Z,15.35
2023-09-04T04:00:41.889Z,15.38
2023-09-04T04:03:11.046Z,15.40
2023-09-04T04:05:39.895Z,15.42
2023-09-04T04:08:07.841Z,15.45
2023-09-04T04:10:35.795Z,15.49
2023-09-04T04:13:03.924Z,15.52
2023-09-04T04:15:31.949Z,15.53
2023-09-04T04:17:59.938Z,15.54
2023-09-04T04:20:27.912Z,15.55
2023-09-04T04:22:56.008Z,15.55
2023-09-04T04:25:24.602Z,15.54
2023-09-04T04:27:52.600Z,15.56
2023-09-04T04:30:20.561Z,15.60
2023-09-04T04:32:50.927Z,15.62
2023-09-04T04:35:19.160Z,15.65
2023-09-04T04:37:47.127Z,15.69
2023-09-04T04:40:21.318Z,15.71
2023-09-04T04:42:49.431Z,15.74
2023-09-04T04:45:17.557Z,15.82
2023-09-04T04:47:45.704Z,15.92
2023-09-04T04:50:14.377Z,16.01
2023-09-04T04:52:42.546Z,16.16
2023-09-04T04:55:10.848Z,16.27
2023-09-04T04:57:40.935Z,16.37
2023-09-04T05:00:09.817Z,16.47
2023-09-04T05:02:38.413Z,16.59
2023-09-04T05:05:08.391Z,16.71
2023-09-04T05:07:36.959Z,16.83
2023-09-04T05:10:06.756Z,16.93
2023-09-04T05:12:34.754Z,16.98
2023-09-04T05:15:02.886Z,17.13
2023-09-04T05:17:32.118Z,17.20
2023-09-04T05:20:00.168Z,17.26
2023-09-04T05:22:28.263Z,17.29
2023-09-04T05:24:56.302Z,17.37
2023-09-04T05:27:24.683Z,17.43
2023-09-04T05:29:52.846Z,17.38
2023-09-04T05:32:20.830Z,17.39
2023-09-04T05:34:53.142Z,17.42
2023-09-04T05:37:22.154Z,17.47
2023-09-04T05:39:50.531Z,17.60
2023-09-04T05:42:18.624Z,17.78
2023-09-04T05:44:46.610Z,17.89
2023-09-04T05:47:14.563Z,18.08
2023-09-04T05:49:43.644Z,18.31
2023-09-04T05:52:11.656Z,18.63
2023-09-04T05:54:39.588Z,18.99
2023-09-04T05:57:07.576Z,19.37
2023-09-04T05:59:35.515Z,19.77
2023-09-04T06:02:03.584Z,20.17
2023-09-04T06:04:31.739Z,20.57
2023-09-04T06:06:59.646Z,20.91
2023-09-04T06:09:27.615Z,21.07
2023-09-04T06:11:55.573Z,21.16
2023-09-04T06:14:23.555Z,21.18
2023-09-04T06:16:51.533Z,21.27
2023-09-04T06:19:19.464Z,21.39
2023-09-04T06:21:47.459Z,21.54
2023-09-04T06:24:15.404Z,21.63
2023-09-04T06:26:43.337Z,21.66
2023-09-04T06:29:11.316Z,21.65
2023-09-04T06:31:39.410Z,21.63
2023-09-04T06:34:07.426Z,21.65
2023-09-04T06:36:35.468Z,21.72
2023-09-04T06:39:07.449Z,21.78
2023-09-04T06:41:35.503Z,21.80
2023-09-04T06:44:04.813Z,21.90
2023-09-04T06:46:33.478Z,21.99
2023-09-04T06:49:01.487Z,21.90
2023-09-04T06:51:30.325Z,22.00
2023-09-04T06:53:58.398Z,22.17
2023-09-04T06:56:26.391Z,22.28
2023-09-04T06:58:55.180Z,22.40
2023-09-04T07:01:23.436Z,22.54
2023-09-04T07:03:51.506Z,22.69
2023-09-04T07:06:19.457Z,22.84
2023-09-04T07:08:47.818Z,22.98
2023-09-04T07:11:15.776Z,23.05
2023-09-04T07:13:43.840Z,23.11
2023-09-04T07:16:19.845Z,23.18
2023-09-04T07:18:59.006Z,23.20
2023-09-04T07:21:27.060Z,22.89
2023-09-04T07:23:55.012Z,22.58
2023-09-04T07:26:22.981Z,22.51
2023-09-04T07:28:51.189Z,22.49
2023-09-04T07:31:20.820Z,22.44
2023-09-04T07:33:50.286Z,22.24
2023-09-04T07:36:18.797Z,21.96
2023-09-04T07:38:47.381Z,21.88
2023-09-04T07:41:15.385Z,21.93
2023-09-04T07:43:43.343Z,21.90
2023-09-04T07:46:11.430Z,21.85
2023-09-04T07:48:39.935Z,21.86
2023-09-04T07:51:23.455Z,21.74
2023-09-04T07:53:55.917Z,21.83
2023-09-04T07:56:25.170Z,21.87
2023-09-04T07:58:53.904Z,22.00
2023-09-04T08:01:21.919Z,22.00
2023-09-04T08:03:50.037Z,21.94
2023-09-04T08:06:18.029Z,21.96
2023-09-04T08:08:45.949Z,21.80
2023-09-04T08:11:13.893Z,21.76
2023-09-04T08:13:41.998Z,21.83
2023-09-04T08:16:09.983Z,21.74
2023-09-04T08:18:38.029Z,21.60
2023-09-04T08:21:06.000Z,21.65
2023-09-04T08:23:34.015Z,21.68
2023-09-04T08:26:02.762Z,21.48
2023-09-04T08:28:31.108Z,21.22
2023-09-04T08:30:59.327Z,21.14
2023-09-04T08:33:27.502Z,21.28
2023-09-04T08:35:56.671Z,21.24
2023-09-04T08:38:24.640Z,21.26
2023-09-04T08:40:56.111Z,21.43
2023-09-04T08:43:26.420Z,21.54
2023-09-04T08:45:55.232Z,21.31
2023-09-04T08:48:26.406Z,21.13
2023-09-04T08:50:55.600Z,21.24
2023-09-04T08:53:24.797Z,21.50
2023-09-04T08:55:55.996Z,21.73
2023-09-04T08:58:29.175Z,22.01
2023-09-04T09:01:01.080Z,22.13
2023-09-04T09:03:44.132Z,22.28
2023-09-04T09:06:13.759Z,22.46
2023-09-04T09:08:45.287Z,22.61
2023-09-04T09:11:15.452Z,22.67
2023-09-04T09:13:45.619Z,22.36
2023-09-04T09:16:22.246Z,22.09
2023-09-04T09:18:55.694Z,22.02
2023-09-04T09:21:36.126Z,22.24
2023-09-04T09:24:20.818Z,22.43
2023-09-04T09:26:50.420Z,22.39
2023-09-04T09:29:19.134Z,22.36
2023-09-04T09:31:47.939Z,22.54
2023-09-04T09:34:17.811Z,22.68
2023-09-04T09:36:46.151Z,22.73
2023-09-04T09:39:15.826Z,22.67
2023-09-04T09:41:46.255Z,22.32
2023-09-04T09:44:14.205Z,22.28
2023-09-04T09:46:42.874Z,22.53
2023-09-04T09:49:12.341Z,22.67
2023-09-04T09:51:40.560Z,22.75
2023-09-04T09:54:10.246Z,22.75
2023-09-04T09:56:39.544Z,22.51
2023-09-04T09:59:09.461Z,22.16
2023-09-04T10:01:38.327Z,22.07
2023-09-04T10:04:07.510Z,22.27
2023-09-04T10:06:38.881Z,22.48
2023-09-04T10:09:09.590Z,22.65
2023-09-04T10:11:41.578Z,22.78
2023-09-04T10:14:15.758Z,22.94
2023-09-04T10:16:48.828Z,23.00
2023-09-04T10:19:19.073Z,23.05
2023-09-04T10:21:53.374Z,23.13
2023-09-04T10:24:31.581Z,23.14
2023-09-04T10:27:05.852Z,23.02
2023-09-04T10:29:39.875Z,22.76
2023-09-04T10:32:09.464Z,22.51
2023-09-04T10:34:37.500Z,22.38
2023-09-04T10:37:05.848Z,22.29
2023-09-04T10:39:34.266Z,22.36
2023-09-04T10:42:03.064Z,22.43
2023-09-04T10:44:50.891Z,22.40
2023-09-04T10:47:19.775Z,22.34
2023-09-04T10:49:48.845Z,22.41
2023-09-04T10:52:16.856Z,22.54
2023-09-04T10:54:45.073Z,22.73
2023-09-04T10:57:14.026Z,22.91
2023-09-04T10:59:54.177Z,23.03
2023-09-04T11:02:29.304Z,23.04
2023-09-04T11:04:58.832Z,23.08
2023-09-04T11:07:32.119Z,22.93
2023-09-04T11:10:00.060Z,22.81
2023-09-04T11:12:28.304Z,22.72
2023-09-04T11:14:57.119Z,22.70
2023-09-04T11:17:32.771Z,22.83
2023-09-04T11:20:00.886Z,22.96
2023-09-04T11:22:29.217Z,22.93
2023-09-04T11:24:57.219Z,22.97
2023-09-04T11:27:27.160Z,23.14
2023-09-04T11:29:55.471Z,23.24
2023-09-04T11:32:23.776Z,23.36
2023-09-04T11:34:51.791Z,23.49
2023-09-04T11:37:19.727Z,23.48
2023-09-04T11:40:02.997Z,23.42
2023-09-04T11:42:34.641Z,23.44
2023-09-04T11:45:02.592Z,23.13
2023-09-04T11:47:32.301Z,23.01
2023-09-04T11:50:00.390Z,23.04
2023-09-04T11:52:29.428Z,23.18
2023-09-04T11:54:58.381Z,23.45
2023-09-04T11:57:26.442Z,23.58
2023-09-04T11:59:56.280Z,23.77
2023-09-04T12:02:24.323Z,23.90
2023-09-04T12:04:53.436Z,23.94
2023-09-04T12:07:21.623Z,23.87
2023-09-04T12:09:50.727Z,23.81
2023-09-04T12:12:18.850Z,23.92
2023-09-04T12:14:47.057Z,24.03
2023-09-04T12:17:15.156Z,24.14
2023-09-04T12:19:45.734Z,24.18
2023-09-04T12:22:15.242Z,24.23
2023-09-04T12:25:09.586Z,24.20
2023-09-04T12:27:40.379Z,24.30
2023-09-04T12:30:12.458Z,24.31
2023-09-04T12:32:40.620Z,24.23
2023-09-04T12:35:10.116Z,24.05
2023-09-04T12:37:38.390Z,23.84
2023-09-04T12:40:09.546Z,23.81
2023-09-04T12:42:39.480Z,23.91
2023-09-04T12:45:08.604Z,23.94
2023-09-04T12:47:36.915Z,23.97
2023-09-04T12:50:05.811Z,23.90
2023-09-04T12:52:35.156Z,23.59
2023-09-04T12:55:04.425Z,23.33
2023-09-04T12:57:32.370Z,23.28
2023-09-04T13:00:00.344Z,23.39
2023-09-04T13:02:28.628Z,23.54
2023-09-04T13:04:56.716Z,23.58
2023-09-04T13:07:25.216Z,23.61
2023-09-04T13:09:53.312Z,23.65
2023-09-04T13:12:21.292Z,23.65
2023-09-04T13:14:49.309Z,23.67
2023-09-04T13:17:17.970Z,23.76
2023-09-04T13:19:45.933Z,23.81
2023-09-04T13:22:13.957Z,23.97
2023-09-04T13:24:42.037Z,24.05
2023-09-04T13:27:10.735Z,24.03
2023-09-04T13:29:38.758Z,23.90
2023-09-04T13:32:06.969Z,23.77
2023-09-04T13:34:34.961Z,23.65
2023-09-04T13:37:02.938Z,23.63
2023-09-04T13:39:30.872Z,23.67
2023-09-04T13:41:58.874Z,23.71
2023-09-04T13:44:27.454Z,23.88
2023-09-04T13:46:55.444Z,24.00
2023-09-04T13:49:23.885Z,23.97
2023-09-04T13:51:51.907Z,23.95
2023-09-04T13:54:20.507Z,23.89
2023-09-04T13:56:49.296Z,23.64
2023-09-04T13:59:17.841Z,23.49
2023-09-04T14:01:48.350Z,23.29
2023-09-04T14:04:17.562Z,23.25
2023-09-04T14:06:45.504Z,23.29
2023-09-04T14:09:13.460Z,23.39
2023-09-04T14:11:41.536Z,23.46
2023-09-04T14:14:09.596Z,23.54
2023-09-04T14:16:37.614Z,23.67
2023-09-04T14:19:05.656Z,23.69
2023-09-04T14:21:36.397Z,23.76
2023-09-04T14:24:04.615Z,23.80
2023-09-04T14:26:32.569Z,23.85
2023-09-04T14:29:00.575Z,23.78
2023-09-04T14:31:30.533Z,23.82
2023-09-04T14:33:58.914Z,23.86
2023-09-04T14:36:27.011Z,23.85
2023-09-04T14:38:54.980Z,23.74
2023-09-04T14:41:36.985Z,23.64
2023-09-04T14:44:05.988Z,23.67
2023-09-04T14:46:37.186Z,23.77
2023-09-04T14:49:06.325Z,23.75
2023-09-04T14:51:34.318Z,23.68
2023-09-04T14:54:04.084Z,23.56
2023-09-04T14:56:32.162Z,23.53
2023-09-04T14:59:00.244Z,23.54
2023-09-04T15:01:28.603Z,23.52
2023-09-04T15:03:56.701Z,23.43
2023-09-04T15:06:24.825Z,23.27
2023-09-04T15:08:52.854Z,23.27
2023-09-04T15:11:20.800Z,23.34
2023-09-04T15:13:48.911Z,23.34
2023-09-04T15:16:17.035Z,23.37
2023-09-04T15:18:45.078Z,23.44
2023-09-04T15:21:13.074Z,23.54
2023-09-04T15:23:41.053Z,23.62
2023-09-04T15:26:09.090Z,23.67
2023-09-04T15:28:37.457Z,23.74
2023-09-04T15:31:05.510Z,23.81
2023-09-04T15:33:33.538Z,23.84
2023-09-04T15:36:04.624Z,23.89
2023-09-04T15:38:36.380Z,23.87
2023-09-04T15:41:05.027Z,23.76
2023-09-04T15:43:34.236Z,23.61
2023-09-04T15:46:03.097Z,23.62
2023-09-04T15:48:31.181Z,23.55
2023-09-04T15:50:59.105Z,23.42
2023-09-04T15:53:27.092Z,23.30
2023-09-04T15:55:56.954Z,23.20
2023-09-04T15:58:26.712Z,23.13
2023-09-04T16:00:55.239Z,22.98
2023-09-04T16:03:23.512Z,22.85
2023-09-04T16:05:51.605Z,22.74
2023-09-04T16:08:20.514Z,22.72
2023-09-04T16:10:49.614Z,22.65
2023-09-04T16:13:20.902Z,22.62
2023-09-04T16:15:48.894Z,22.58
2023-09-04T16:18:17.053Z,22.48
2023-09-04T16:20:46.346Z,22.38
2023-09-04T16:23:17.790Z,22.30
2023-09-04T16:25:45.918Z,22.30
2023-09-04T16:28:14.276Z,22.28
2023-09-04T16:30:42.339Z,22.25
2023-09-04T16:33:13.644Z,22.21
2023-09-04T16:35:43.195Z,22.22
2023-09-04T16:38:11.573Z,22.17
2023-09-04T16:40:44.109Z,22.07
2023-09-04T16:43:12.091Z,21.98
2023-09-04T16:45:41.522Z,21.90
2023-09-04T16:48:09.554Z,21.84
2023-09-04T16:50:37.659Z,21.76
2023-09-04T16:53:06.053Z,21.75
2023-09-04T16:55:34.215Z,21.75
2023-09-04T16:58:02.996Z,21.68
2023-09-04T17:00:31.057Z,21.61
2023-09-04T17:02:59.096Z,21.56
2023-09-04T17:05:27.086Z,21.51
2023-09-04T17:07:54.999Z,21.48
2023-09-04T17:10:22.949Z,21.42
2023-09-04T17:12:50.869Z,21.36
2023-09-04T17:15:20.006Z,21.34
2023-09-04T17:17:48.386Z,21.34
2023-09-04T17:20:16.784Z,21.34
2023-09-04T17:22:44.702Z,21.31
2023-09-04T17:25:12.590Z,21.26
2023-09-04T17:27:40.531Z,21.21
2023-09-04T17:30:09.570Z,21.17
2023-09-04T17:32:38.772Z,21.11
2023-09-04T17:35:08.538Z,21.04
2023-09-04T17:37:36.442Z,20.94
2023-09-04T17:40:05.009Z,20.84
2023-09-04T17:42:33.915Z,20.78
2023-09-04T17:45:01.866Z,20.71
2023-09-04T17:47:29.848Z,20.64
2023-09-04T17:49:57.967Z,20.57
2023-09-04T17:52:25.948Z,20.50
2023-09-04T17:54:53.927Z,20.43
2023-09-04T17:57:21.941Z,20.35
2023-09-04T17:59:49.842Z,20.28
2023-09-04T18:02:17.851Z,20.22
2023-09-04T18:04:46.241Z,20.17
2023-09-04T18:07:14.310Z,20.16
2023-09-04T18:09:42.243Z,20.12
2023-09-04T18:12:10.312Z,20.06
2023-09-04T18:14:38.307Z,20.00
2023-09-04T18:17:06.314Z,19.93
2023-09-04T18:19:34.506Z,19.87
2023-09-04T18:22:03.857Z,19.80
2023-09-04T18:24:32.230Z,19.74
2023-09-04T18:27:02.165Z,19.66
2023-09-04T18:29:30.356Z,19.58
2023-09-04T18:31:58.428Z,19.51
2023-09-04T18:34:26.394Z,19.44
2023-09-04T18:36:54.346Z,19.38
2023-09-04T18:39:22.484Z,19.33
2023-09-04T18:41:50.711Z,19.28
2023-09-04T18:44:18.742Z,19.23
2023-09-04T18:46:46.871Z,19.18
2023-09-04T18:49:14.964Z,19.15
2023-09-04T18:51:43.408Z,19.12
2023-09-04T18:54:11.452Z,19.10
2023-09-04T18:56:39.614Z,19.08
2023-09-04T18:59:07.625Z,19.06
2023-09-04T19:01:35.613Z,19.05
2023-09-04T19:04:03.718Z,19.01
2023-09-04T19:06:32.409Z,18.99
2023-09-04T19:09:00.319Z,18.97
2023-09-04T19:11:28.404Z,18.94
2023-09-04T19:13:56.400Z,18.91
2023-09-04T19:16:25.451Z,18.88
2023-09-04T19:18:54.305Z,18.85
2023-09-04T19:21:22.362Z,18.80
2023-09-04T19:23:50.706Z,18.76
2023-09-04T19:26:18.649Z,18.68
2023-09-04T19:28:50.846Z,18.62
2023-09-04T19:31:21.235Z,18.59
2023-09-04T19:33:51.178Z,18.56
2023-09-04T19:36:20.127Z,18.53
2023-09-04T19:38:48.185Z,18.50
2023-09-04T19:41:16.170Z,18.46
2023-09-04T19:43:44.182Z,18.44
2023-09-04T19:46:12.216Z,18.41
2023-09-04T19:48:40.245Z,18.38
2023-09-04T19:51:08.138Z,18.33
2023-09-04T19:53:36.074Z,18.29
2023-09-04T19:56:05.318Z,18.24
2023-09-04T19:58:33.444Z,18.19
2023-09-04T20:01:04.646Z,18.14
2023-09-04T20:03:33.632Z,18.08
2023-09-04T20:06:01.948Z,18.02
2023-09-04T20:08:30.061Z,17.96
2023-09-04T20:10:58.092Z,17.88
2023-09-04T20:13:26.568Z,17.75
2023-09-04T20:15:55.016Z,17.66
2023-09-04T20:18:23.399Z,17.61
2023-09-04T20:20:52.240Z,17.56
2023-09-04T20:23:20.224Z,17.51
2023-09-04T20:25:48.243Z,17.45
2023-09-04T20:28:16.349Z,17.39
2023-09-04T20:30:51.218Z,17.33
2023-09-04T20:33:24.040Z,17.28
2023-09-04T20:35:53.216Z,17.24
2023-09-04T20:38:22.062Z,17.20
2023-09-04T20:40:53.712Z,17.16
2023-09-04T20:43:22.132Z,17.14
2023-09-04T20:45:50.280Z,17.10
2023-09-04T20:48:18.264Z,17.07
2023-09-04T20:50:46.304Z,17.04
2023-09-04T20:53:15.303Z,17.01
2023-09-04T20:55:44.099Z,16.98
2023-09-04T20:58:12.043Z,16.95
2023-09-04T21:00:43.272Z,16.93
2023-09-04T21:03:14.413Z,16.91
2023-09-04T21:05:43.408Z,16.89
2023-09-04T21:08:11.631Z,16.87
2023-09-04T21:10:40.363Z,16.86
2023-09-04T21:13:26.978Z,16.86
2023-09-04T21:16:13.630Z,16.89
2023-09-04T21:19:00.103Z,16.91
2023-09-04T21:21:46.752Z,16.94
2023-09-04T21:24:33.402Z,16.96
2023-09-04T21:27:19.630Z,16.99
2023-09-04T21:30:05.912Z,17.02
2023-09-04T21:32:52.300Z,17.05
2023-09-04T21:35:38.877Z,17.08
2023-09-04T21:38:25.368Z,17.11
2023-09-04T21:41:11.733Z,17.14
2023-09-04T21:43:58.238Z,17.15
2023-09-04T21:46:44.776Z,17.16
2023-09-04T21:49:31.317Z,17.18
2023-09-04T21:52:17.467Z,17.20
2023-09-04T21:55:04.100Z,17.23
2023-09-04T21:57:50.400Z,17.24
2023-09-04T22:00:37.082Z,17.25
2023-09-04T22:03:26.181Z,17.27
2023-09-04T22:06:19.263Z,17.29
2023-09-04T22:09:05.580Z,17.32
2023-09-04T22:11:51.925Z,17.34
2023-09-04T22:14:38.477Z,17.37
2023-09-04T22:17:24.890Z,17.41
2023-09-04T22:20:11.445Z,17.46
2023-09-04T22:22:58.002Z,17.49
2023-09-04T22:25:44.283Z,17.53
2023-09-04T22:28:30.766Z,17.56
2023-09-04T22:31:17.102Z,17.60
2023-09-04T22:34:03.643Z,17.64
2023-09-04T22:36:49.926Z,17.66
2023-09-04T22:39:36.503Z,17.67
2023-09-04T22:42:23.469Z,17.68
2023-09-04T22:45:10.017Z,17.69
2023-09-04T22:47:56.564Z,17.69
2023-09-04T22:50:43.150Z,17.69
2023-09-04T22:53:29.664Z,17.69
2023-09-04T22:56:16.093Z,17.67
2023-09-04T22:59:02.306Z,17.65
2023-09-04T23:01:51.805Z,17.62
2023-09-04T23:04:38.573Z,17.58
2023-09-04T23:07:24.964Z,17.52
2023-09-04T23:10:11.248Z,17.46
2023-09-04T23:12:57.493Z,17.39
2023-09-04T23:15:44.363Z,17.31
2023-09-04T23:18:30.780Z,17.24
2023-09-04T23:21:04.363Z,17.16
2023-09-04T23:23:36.412Z,17.08
2023-09-04T23:26:08.150Z,16.99
2023-09-04T23:28:36.168Z,16.91
2023-09-04T23:31:05.057Z,16.83
2023-09-04T23:33:39.253Z,16.75
2023-09-04T23:36:36.877Z,16.68
2023-09-04T23:39:08.263Z,16.61
2023-09-04T23:41:55.651Z,16.56
2023-09-04T23:44:42.085Z,16.49
2023-09-04T23:47:11.377Z,16.42
2023-09-04T23:49:39.530Z,16.37
2023-09-04T23:52:10.430Z,16.31
2023-09-04T23:54:39.158Z,16.26
2023-09-04T23:57:09.162Z,16.20
2023-09-04T23:59:41.000Z,16.13
